Terminal Aerodrome Forecast
Issued by NWS Missoula, MT

Home | Current Version | Previous Version | Text Only | Print | Product List | Glossary On
Versions: 1 2 3 4 5 6 7 8 9 10 11 12 13 14 15 16 17 18 19 20 21 22 23 24 25 26
000
FTUS45 KMSO 202330
TAFMSO
TAF
KMSO 202330Z 2100/2124 VRB03KT P6SM SCT040
     FM210400 11005KT 5SM BR VCFG SCT005
     FM210800 VRB03KT 2SM BR VCFG SCT005
     FM211100 00000KT 1/2SM FZFG BKN005
     FM211600 VRB03KT 5SM BR VCSH BKN050=

USA.gov is the U.S. government's official web portal to all federal, state and local government web resources and services.